sensor_id;sensor_type;location;lat;lon;timestamp;P1;durP1;ratioP1;P2;durP2;ratioP2
64403;SDS011;50726;54.912;-8.392;2022-10-29T00:02:07;827.55;;;772.42;;
64403;SDS011;50726;54.912;-8.392;2022-10-29T00:04:32;816.67;;;762.25;;
64403;SDS011;50726;54.912;-8.392;2022-10-29T00:06:58;814.00;;;759.63;;
64403;SDS011;50726;54.912;-8.392;2022-10-29T00:09:23;800.42;;;746.60;;
64403;SDS011;50726;54.912;-8.392;2022-10-29T00:11:49;802.55;;;749.33;;
64403;SDS011;50726;54.912;-8.392;2022-10-29T00:14:14;794.45;;;741.00;;
64403;SDS011;50726;54.912;-8.392;2022-10-29T00:16:40;797.30;;;743.55;;
64403;SDS011;50726;54.912;-8.392;2022-10-29T00:19:06;818.50;;;763.55;;
64403;SDS011;50726;54.912;-8.392;2022-10-29T00:21:31;818.67;;;764.30;;
64403;SDS011;50726;54.912;-8.392;2022-10-29T00:23:58;806.40;;;752.47;;
64403;SDS011;50726;54.912;-8.392;2022-10-29T00:26:24;824.53;;;769.72;;
64403;SDS011;50726;54.912;-8.392;2022-10-29T00:28:52;819.80;;;764.88;;
64403;SDS011;50726;54.912;-8.392;2022-10-29T00:31:19;824.65;;;769.33;;
64403;SDS011;50726;54.912;-8.392;2022-10-29T00:33:48;816.33;;;761.20;;
64403;SDS011;50726;54.912;-8.392;2022-10-29T00:36:15;820.75;;;765.47;;
64403;SDS011;50726;54.912;-8.392;2022-10-29T00:38:43;814.20;;;759.80;;
64403;SDS011;50726;54.912;-8.392;2022-10-29T00:41:11;827.38;;;773.25;;
64403;SDS011;50726;54.912;-8.392;2022-10-29T00:43:39;832.72;;;777.75;;
64403;SDS011;50726;54.912;-8.392;2022-10-29T00:46:08;835.50;;;779.22;;
64403;SDS011;50726;54.912;-8.392;2022-10-29T00:48:42;827.28;;;772.45;;
64403;SDS011;50726;54.912;-8.392;2022-10-29T00:51:10;811.47;;;758.40;;
64403;SDS011;50726;54.912;-8.392;2022-10-29T00:53:38;822.50;;;768.88;;
64403;SDS011;50726;54.912;-8.392;2022-10-29T00:56:07;805.30;;;752.97;;
64403;SDS011;50726;54.912;-8.392;2022-10-29T00:58:33;805.28;;;752.95;;
64403;SDS011;50726;54.912;-8.392;2022-10-29T01:00:59;816.80;;;763.80;;
64403;SDS011;50726;54.912;-8.392;2022-10-29T01:03:25;824.22;;;771.08;;
64403;SDS011;50726;54.912;-8.392;2022-10-29T01:05:51;818.17;;;765.20;;
64403;SDS011;50726;54.912;-8.392;2022-10-29T01:08:18;820.70;;;767.03;;
64403;SDS011;50726;54.912;-8.392;2022-10-29T01:10:48;817.50;;;764.22;;
64403;SDS011;50726;54.912;-8.392;2022-10-29T01:16:12;822.42;;;768.30;;
64403;SDS011;50726;54.912;-8.392;2022-10-29T01:18:49;835.90;;;781.50;;
64403;SDS011;50726;54.912;-8.392;2022-10-29T01:21:37;849.10;;;793.63;;
64403;SDS011;50726;54.912;-8.392;2022-10-29T01:27:20;850.63;;;794.75;;
64403;SDS011;50726;54.912;-8.392;2022-10-29T01:33:10;846.60;;;791.17;;
64403;SDS011;50726;54.912;-8.392;2022-10-29T01:35:51;837.78;;;782.97;;
64403;SDS011;50726;54.912;-8.392;2022-10-29T01:38:33;826.35;;;771.50;;
64403;SDS011;50726;54.912;-8.392;2022-10-29T01:41:02;802.65;;;748.83;;
64403;SDS011;50726;54.912;-8.392;2022-10-29T01:44:01;800.67;;;748.30;;
64403;SDS011;50726;54.912;-8.392;2022-10-29T01:46:34;808.90;;;755.08;;
64403;SDS011;50726;54.912;-8.392;2022-10-29T01:49:06;791.30;;;738.40;;
64403;SDS011;50726;54.912;-8.392;2022-10-29T01:51:35;780.60;;;729.40;;
64403;SDS011;50726;54.912;-8.392;2022-10-29T01:54:04;769.53;;;718.55;;
64403;SDS011;50726;54.912;-8.392;2022-10-29T01:56:33;777.22;;;725.58;;
64403;SDS011;50726;54.912;-8.392;2022-10-29T01:58:59;783.75;;;731.88;;
64403;SDS011;50726;54.912;-8.392;2022-10-29T02:04:15;745.22;;;696.35;;
64403;SDS011;50726;54.912;-8.392;2022-10-29T02:09:30;729.78;;;680.85;;
64403;SDS011;50726;54.912;-8.392;2022-10-29T02:12:15;743.33;;;693.40;;
64403;SDS011;50726;54.912;-8.392;2022-10-29T02:15:02;722.08;;;674.22;;
64403;SDS011;50726;54.912;-8.392;2022-10-29T02:17:32;725.53;;;677.08;;
64403;SDS011;50726;54.912;-8.392;2022-10-29T02:20:03;723.55;;;675.40;;
64403;SDS011;50726;54.912;-8.392;2022-10-29T02:22:31;739.20;;;690.10;;
64403;SDS011;50726;54.912;-8.392;2022-10-29T02:24:56;742.28;;;692.17;;
64403;SDS011;50726;54.912;-8.392;2022-10-29T02:27:22;742.75;;;693.63;;
64403;SDS011;50726;54.912;-8.392;2022-10-29T02:29:47;750.53;;;700.50;;
64403;SDS011;50726;54.912;-8.392;2022-10-29T02:32:13;743.78;;;693.75;;
64403;SDS011;50726;54.912;-8.392;2022-10-29T02:34:38;754.95;;;705.03;;
64403;SDS011;50726;54.912;-8.392;2022-10-29T02:37:04;763.60;;;713.72;;
64403;SDS011;50726;54.912;-8.392;2022-10-29T02:39:29;742.78;;;692.95;;
64403;SDS011;50726;54.912;-8.392;2022-10-29T02:41:56;745.08;;;696.28;;
64403;SDS011;50726;54.912;-8.392;2022-10-29T02:44:21;749.97;;;700.75;;
64403;SDS011;50726;54.912;-8.392;2022-10-29T02:46:47;755.75;;;706.58;;
64403;SDS011;50726;54.912;-8.392;2022-10-29T02:49:12;751.45;;;700.80;;
64403;SDS011;50726;54.912;-8.392;2022-10-29T02:51:42;749.83;;;700.90;;
64403;SDS011;50726;54.912;-8.392;2022-10-29T02:54:08;753.15;;;703.00;;
64403;SDS011;50726;54.912;-8.392;2022-10-29T02:56:33;751.85;;;701.60;;
64403;SDS011;50726;54.912;-8.392;2022-10-29T02:58:59;758.80;;;709.28;;
64403;SDS011;50726;54.912;-8.392;2022-10-29T03:01:24;753.13;;;704.20;;
64403;SDS011;50726;54.912;-8.392;2022-10-29T03:03:50;735.55;;;686.65;;
64403;SDS011;50726;54.912;-8.392;2022-10-29T03:06:16;739.08;;;689.80;;
64403;SDS011;50726;54.912;-8.392;2022-10-29T03:08:43;731.20;;;682.92;;
64403;SDS011;50726;54.912;-8.392;2022-10-29T03:11:21;724.25;;;675.75;;
64403;SDS011;50726;54.912;-8.392;2022-10-29T03:13:46;743.70;;;694.90;;
64403;SDS011;50726;54.912;-8.392;2022-10-29T03:16:12;729.40;;;680.70;;
64403;SDS011;50726;54.912;-8.392;2022-10-29T03:18:37;725.47;;;676.38;;
64403;SDS011;50726;54.912;-8.392;2022-10-29T03:21:03;734.55;;;683.65;;
64403;SDS011;50726;54.912;-8.392;2022-10-29T03:23:29;730.92;;;681.75;;
64403;SDS011;50726;54.912;-8.392;2022-10-29T03:25:55;722.88;;;674.25;;
64403;SDS011;50726;54.912;-8.392;2022-10-29T03:28:21;721.35;;;672.92;;
64403;SDS011;50726;54.912;-8.392;2022-10-29T03:30:48;736.47;;;687.67;;
64403;SDS011;50726;54.912;-8.392;2022-10-29T03:33:13;723.85;;;675.22;;
64403;SDS011;50726;54.912;-8.392;2022-10-29T03:35:39;712.70;;;665.22;;
64403;SDS011;50726;54.912;-8.392;2022-10-29T03:38:05;703.97;;;655.83;;
64403;SDS011;50726;54.912;-8.392;2022-10-29T03:40:30;690.22;;;644.47;;
64403;SDS011;50726;54.912;-8.392;2022-10-29T03:42:56;704.92;;;658.13;;
64403;SDS011;50726;54.912;-8.392;2022-10-29T03:45:22;720.47;;;673.15;;
64403;SDS011;50726;54.912;-8.392;2022-10-29T03:47:47;699.33;;;652.53;;
64403;SDS011;50726;54.912;-8.392;2022-10-29T03:50:13;682.72;;;637.22;;
64403;SDS011;50726;54.912;-8.392;2022-10-29T03:52:39;686.03;;;640.53;;
64403;SDS011;50726;54.912;-8.392;2022-10-29T03:55:04;675.05;;;630.95;;
64403;SDS011;50726;54.912;-8.392;2022-10-29T03:57:31;678.13;;;633.53;;
64403;SDS011;50726;54.912;-8.392;2022-10-29T03:59:57;682.72;;;637.50;;
64403;SDS011;50726;54.912;-8.392;2022-10-29T04:02:23;704.08;;;658.22;;
64403;SDS011;50726;54.912;-8.392;2022-10-29T04:04:48;691.03;;;645.08;;
64403;SDS011;50726;54.912;-8.392;2022-10-29T04:07:14;703.03;;;656.10;;
64403;SDS011;50726;54.912;-8.392;2022-10-29T04:09:40;725.78;;;676.95;;
64403;SDS011;50726;54.912;-8.392;2022-10-29T04:12:05;705.67;;;659.35;;
64403;SDS011;50726;54.912;-8.392;2022-10-29T04:14:32;710.47;;;662.75;;
64403;SDS011;50726;54.912;-8.392;2022-10-29T04:16:57;719.30;;;670.92;;
64403;SDS011;50726;54.912;-8.392;2022-10-29T04:19:23;731.35;;;682.63;;
64403;SDS011;50726;54.912;-8.392;2022-10-29T04:21:48;690.47;;;645.70;;
64403;SDS011;50726;54.912;-8.392;2022-10-29T04:24:14;639.35;;;597.20;;
64403;SDS011;50726;54.912;-8.392;2022-10-29T04:26:43;648.97;;;606.45;;
64403;SDS011;50726;54.912;-8.392;2022-10-29T04:31:35;685.55;;;639.78;;
64403;SDS011;50726;54.912;-8.392;2022-10-29T04:34:01;694.85;;;649.28;;
64403;SDS011;50726;54.912;-8.392;2022-10-29T04:36:27;704.35;;;657.47;;
64403;SDS011;50726;54.912;-8.392;2022-10-29T04:38:53;703.13;;;657.10;;
64403;SDS011;50726;54.912;-8.392;2022-10-29T04:41:19;711.80;;;663.97;;
64403;SDS011;50726;54.912;-8.392;2022-10-29T04:43:44;721.05;;;672.40;;
64403;SDS011;50726;54.912;-8.392;2022-10-29T04:46:10;719.22;;;671.00;;
64403;SDS011;50726;54.912;-8.392;2022-10-29T04:48:36;723.05;;;674.78;;
64403;SDS011;50726;54.912;-8.392;2022-10-29T04:51:01;731.13;;;683.33;;
64403;SDS011;50726;54.912;-8.392;2022-10-29T04:53:27;683.00;;;638.05;;
64403;SDS011;50726;54.912;-8.392;2022-10-29T04:55:57;724.42;;;676.53;;
64403;SDS011;50726;54.912;-8.392;2022-10-29T04:58:25;731.03;;;683.10;;
64403;SDS011;50726;54.912;-8.392;2022-10-29T05:00:50;700.75;;;654.63;;
64403;SDS011;50726;54.912;-8.392;2022-10-29T05:03:16;714.65;;;667.10;;
64403;SDS011;50726;54.912;-8.392;2022-10-29T05:05:41;729.42;;;680.13;;
64403;SDS011;50726;54.912;-8.392;2022-10-29T05:08:08;728.70;;;680.15;;
64403;SDS011;50726;54.912;-8.392;2022-10-29T05:10:35;710.97;;;662.70;;
64403;SDS011;50726;54.912;-8.392;2022-10-29T05:13:04;730.58;;;680.97;;
64403;SDS011;50726;54.912;-8.392;2022-10-29T05:15:32;716.53;;;668.05;;
64403;SDS011;50726;54.912;-8.392;2022-10-29T05:17:58;716.50;;;668.30;;
64403;SDS011;50726;54.912;-8.392;2022-10-29T05:20:24;707.58;;;660.03;;
64403;SDS011;50726;54.912;-8.392;2022-10-29T05:23:01;697.65;;;649.58;;
64403;SDS011;50726;54.912;-8.392;2022-10-29T05:25:29;687.15;;;640.70;;
64403;SDS011;50726;54.912;-8.392;2022-10-29T05:28:11;694.45;;;648.85;;
64403;SDS011;50726;54.912;-8.392;2022-10-29T05:30:38;694.10;;;648.80;;
64403;SDS011;50726;54.912;-8.392;2022-10-29T05:33:08;695.25;;;650.42;;
64403;SDS011;50726;54.912;-8.392;2022-10-29T05:35:35;684.60;;;639.33;;
64403;SDS011;50726;54.912;-8.392;2022-10-29T05:38:00;700.05;;;654.58;;
64403;SDS011;50726;54.912;-8.392;2022-10-29T05:40:26;704.72;;;658.83;;
64403;SDS011;50726;54.912;-8.392;2022-10-29T05:42:52;707.65;;;660.80;;
64403;SDS011;50726;54.912;-8.392;2022-10-29T05:45:18;724.95;;;678.03;;
64403;SDS011;50726;54.912;-8.392;2022-10-29T05:47:44;722.33;;;673.92;;
64403;SDS011;50726;54.912;-8.392;2022-10-29T05:50:10;717.35;;;669.78;;
64403;SDS011;50726;54.912;-8.392;2022-10-29T05:52:36;743.65;;;695.05;;
64403;SDS011;50726;54.912;-8.392;2022-10-29T05:55:02;751.83;;;702.28;;
64403;SDS011;50726;54.912;-8.392;2022-10-29T05:57:29;767.97;;;718.22;;
64403;SDS011;50726;54.912;-8.392;2022-10-29T05:59:55;742.55;;;693.70;;
64403;SDS011;50726;54.912;-8.392;2022-10-29T06:02:20;738.60;;;689.78;;
64403;SDS011;50726;54.912;-8.392;2022-10-29T06:04:46;728.35;;;679.80;;
64403;SDS011;50726;54.912;-8.392;2022-10-29T06:07:11;728.95;;;680.45;;
64403;SDS011;50726;54.912;-8.392;2022-10-29T06:09:37;735.20;;;686.35;;
64403;SDS011;50726;54.912;-8.392;2022-10-29T06:12:03;726.42;;;677.55;;
64403;SDS011;50726;54.912;-8.392;2022-10-29T06:14:30;726.08;;;677.55;;
64403;SDS011;50726;54.912;-8.392;2022-10-29T06:16:56;731.92;;;683.88;;
64403;SDS011;50726;54.912;-8.392;2022-10-29T06:19:21;704.88;;;659.35;;
64403;SDS011;50726;54.912;-8.392;2022-10-29T06:21:47;735.50;;;688.88;;
64403;SDS011;50726;54.912;-8.392;2022-10-29T06:24:12;739.97;;;691.63;;
64403;SDS011;50726;54.912;-8.392;2022-10-29T06:26:39;753.95;;;705.47;;
64403;SDS011;50726;54.912;-8.392;2022-10-29T06:29:05;747.15;;;698.22;;
64403;SDS011;50726;54.912;-8.392;2022-10-29T06:31:31;739.75;;;690.42;;
64403;SDS011;50726;54.912;-8.392;2022-10-29T06:33:56;723.80;;;675.33;;
64403;SDS011;50726;54.912;-8.392;2022-10-29T06:36:22;727.90;;;680.15;;
64403;SDS011;50726;54.912;-8.392;2022-10-29T06:38:48;718.58;;;671.60;;
64403;SDS011;50726;54.912;-8.392;2022-10-29T06:41:13;703.80;;;656.53;;
64403;SDS011;50726;54.912;-8.392;2022-10-29T06:43:39;675.97;;;633.17;;
64403;SDS011;50726;54.912;-8.392;2022-10-29T06:46:05;720.75;;;674.55;;
64403;SDS011;50726;54.912;-8.392;2022-10-29T06:48:30;718.60;;;671.70;;
64403;SDS011;50726;54.912;-8.392;2022-10-29T06:50:59;707.25;;;661.47;;
64403;SDS011;50726;54.912;-8.392;2022-10-29T06:53:25;709.60;;;663.00;;
64403;SDS011;50726;54.912;-8.392;2022-10-29T06:55:51;719.65;;;672.97;;
64403;SDS011;50726;54.912;-8.392;2022-10-29T06:58:18;706.53;;;660.95;;
64403;SDS011;50726;54.912;-8.392;2022-10-29T07:00:45;709.88;;;664.25;;
64403;SDS011;50726;54.912;-8.392;2022-10-29T07:03:13;701.13;;;655.83;;
64403;SDS011;50726;54.912;-8.392;2022-10-29T07:05:39;711.00;;;665.33;;
64403;SDS011;50726;54.912;-8.392;2022-10-29T07:08:05;702.15;;;656.92;;
64403;SDS011;50726;54.912;-8.392;2022-10-29T07:10:31;707.00;;;659.75;;
64403;SDS011;50726;54.912;-8.392;2022-10-29T07:12:57;693.22;;;647.63;;
64403;SDS011;50726;54.912;-8.392;2022-10-29T07:15:23;687.95;;;643.25;;
64403;SDS011;50726;54.912;-8.392;2022-10-29T07:17:59;686.63;;;642.65;;
64403;SDS011;50726;54.912;-8.392;2022-10-29T07:20:32;672.80;;;629.25;;
64403;SDS011;50726;54.912;-8.392;2022-10-29T07:23:00;664.08;;;620.53;;
64403;SDS011;50726;54.912;-8.392;2022-10-29T07:25:26;637.05;;;595.13;;
64403;SDS011;50726;54.912;-8.392;2022-10-29T07:27:52;568.13;;;531.70;;
64403;SDS011;50726;54.912;-8.392;2022-10-29T07:30:18;591.47;;;551.72;;
64403;SDS011;50726;54.912;-8.392;2022-10-29T07:32:44;537.58;;;502.67;;
64403;SDS011;50726;54.912;-8.392;2022-10-29T07:35:10;528.20;;;493.17;;
64403;SDS011;50726;54.912;-8.392;2022-10-29T07:37:36;512.80;;;478.88;;
64403;SDS011;50726;54.912;-8.392;2022-10-29T07:40:02;483.17;;;451.15;;
64403;SDS011;50726;54.912;-8.392;2022-10-29T07:42:29;484.77;;;450.67;;
64403;SDS011;50726;54.912;-8.392;2022-10-29T07:44:54;463.15;;;430.92;;
64403;SDS011;50726;54.912;-8.392;2022-10-29T07:47:20;464.20;;;431.45;;
64403;SDS011;50726;54.912;-8.392;2022-10-29T07:49:46;462.27;;;429.25;;
64403;SDS011;50726;54.912;-8.392;2022-10-29T07:52:12;438.95;;;409.85;;
64403;SDS011;50726;54.912;-8.392;2022-10-29T07:54:38;425.30;;;397.38;;
64403;SDS011;50726;54.912;-8.392;2022-10-29T07:57:04;427.85;;;398.27;;
64403;SDS011;50726;54.912;-8.392;2022-10-29T07:59:29;461.83;;;432.65;;
64403;SDS011;50726;54.912;-8.392;2022-10-29T08:01:55;455.40;;;425.90;;
64403;SDS011;50726;54.912;-8.392;2022-10-29T08:04:21;469.55;;;438.70;;
64403;SDS011;50726;54.912;-8.392;2022-10-29T08:06:47;463.33;;;432.67;;
64403;SDS011;50726;54.912;-8.392;2022-10-29T08:09:13;448.50;;;419.23;;
64403;SDS011;50726;54.912;-8.392;2022-10-29T08:11:38;447.65;;;417.17;;
64403;SDS011;50726;54.912;-8.392;2022-10-29T08:14:04;442.88;;;413.80;;
64403;SDS011;50726;54.912;-8.392;2022-10-29T08:16:30;434.20;;;405.60;;
64403;SDS011;50726;54.912;-8.392;2022-10-29T08:18:55;459.73;;;430.52;;
64403;SDS011;50726;54.912;-8.392;2022-10-29T08:21:21;455.48;;;425.88;;
64403;SDS011;50726;54.912;-8.392;2022-10-29T08:23:47;456.17;;;426.10;;
64403;SDS011;50726;54.912;-8.392;2022-10-29T08:26:13;459.45;;;429.73;;
64403;SDS011;50726;54.912;-8.392;2022-10-29T08:28:38;441.38;;;412.50;;
64403;SDS011;50726;54.912;-8.392;2022-10-29T08:31:04;464.13;;;434.15;;
64403;SDS011;50726;54.912;-8.392;2022-10-29T08:33:30;471.48;;;440.17;;
64403;SDS011;50726;54.912;-8.392;2022-10-29T08:35:55;472.77;;;442.00;;
64403;SDS011;50726;54.912;-8.392;2022-10-29T08:38:21;478.65;;;446.05;;
64403;SDS011;50726;54.912;-8.392;2022-10-29T08:43:34;465.02;;;435.23;;
64403;SDS011;50726;54.912;-8.392;2022-10-29T08:46:23;469.45;;;438.10;;
64403;SDS011;50726;54.912;-8.392;2022-10-29T08:48:52;478.42;;;446.70;;
64403;SDS011;50726;54.912;-8.392;2022-10-29T08:51:27;489.02;;;457.10;;
64403;SDS011;50726;54.912;-8.392;2022-10-29T08:53:55;473.02;;;441.80;;
64403;SDS011;50726;54.912;-8.392;2022-10-29T08:56:29;482.35;;;451.10;;
64403;SDS011;50726;54.912;-8.392;2022-10-29T09:01:37;497.00;;;463.60;;
64403;SDS011;50726;54.912;-8.392;2022-10-29T09:04:10;505.30;;;472.38;;
64403;SDS011;50726;54.912;-8.392;2022-10-29T09:18:00;437.48;;;406.05;;
64403;SDS011;50726;54.912;-8.392;2022-10-29T09:28:53;471.05;;;440.75;;
64403;SDS011;50726;54.912;-8.392;2022-10-29T09:31:29;461.55;;;430.58;;
64403;SDS011;50726;54.912;-8.392;2022-10-29T09:34:16;456.58;;;426.48;;
64403;SDS011;50726;54.912;-8.392;2022-10-29T09:36:50;472.90;;;440.90;;
64403;SDS011;50726;54.912;-8.392;2022-10-29T09:39:20;480.80;;;449.65;;
64403;SDS011;50726;54.912;-8.392;2022-10-29T09:41:56;476.27;;;444.67;;
64403;SDS011;50726;54.912;-8.392;2022-10-29T09:44:28;480.60;;;448.42;;
64403;SDS011;50726;54.912;-8.392;2022-10-29T09:52:51;451.38;;;422.00;;
64403;SDS011;50726;54.912;-8.392;2022-10-29T09:55:19;437.63;;;407.15;;
64403;SDS011;50726;54.912;-8.392;2022-10-29T09:57:48;427.70;;;399.08;;
64403;SDS011;50726;54.912;-8.392;2022-10-29T10:00:19;440.70;;;412.27;;
64403;SDS011;50726;54.912;-8.392;2022-10-29T10:02:48;385.90;;;360.42;;
64403;SDS011;50726;54.912;-8.392;2022-10-29T10:05:29;395.60;;;370.00;;
64403;SDS011;50726;54.912;-8.392;2022-10-29T10:08:05;426.20;;;398.80;;
64403;SDS011;50726;54.912;-8.392;2022-10-29T10:10:35;411.23;;;385.13;;
64403;SDS011;50726;54.912;-8.392;2022-10-29T10:13:33;379.48;;;355.15;;
64403;SDS011;50726;54.912;-8.392;2022-10-29T10:16:02;367.05;;;341.95;;
64403;SDS011;50726;54.912;-8.392;2022-10-29T10:21:13;401.30;;;376.52;;
64403;SDS011;50726;54.912;-8.392;2022-10-29T10:23:50;456.13;;;428.52;;
64403;SDS011;50726;54.912;-8.392;2022-10-29T10:26:31;491.75;;;462.40;;
64403;SDS011;50726;54.912;-8.392;2022-10-29T10:29:03;515.63;;;485.27;;
64403;SDS011;50726;54.912;-8.392;2022-10-29T10:31:29;532.80;;;501.15;;
64403;SDS011;50726;54.912;-8.392;2022-10-29T10:33:54;570.42;;;536.03;;
64403;SDS011;50726;54.912;-8.392;2022-10-29T10:36:23;595.58;;;559.55;;
64403;SDS011;50726;54.912;-8.392;2022-10-29T10:38:54;613.45;;;575.67;;
64403;SDS011;50726;54.912;-8.392;2022-10-29T10:41:29;568.00;;;531.72;;
64403;SDS011;50726;54.912;-8.392;2022-10-29T10:44:00;583.70;;;548.50;;
64403;SDS011;50726;54.912;-8.392;2022-10-29T10:48:59;540.05;;;507.63;;
64403;SDS011;50726;54.912;-8.392;2022-10-29T10:51:37;604.75;;;568.88;;
64403;SDS011;50726;54.912;-8.392;2022-10-29T10:56:51;608.22;;;571.35;;
64403;SDS011;50726;54.912;-8.392;2022-10-29T10:59:22;551.05;;;518.45;;
64403;SDS011;50726;54.912;-8.392;2022-10-29T11:01:54;554.03;;;521.55;;
64403;SDS011;50726;54.912;-8.392;2022-10-29T11:04:28;462.83;;;435.42;;
64403;SDS011;50726;54.912;-8.392;2022-10-29T11:07:01;374.23;;;351.65;;
64403;SDS011;50726;54.912;-8.392;2022-10-29T11:09:36;367.13;;;345.08;;
64403;SDS011;50726;54.912;-8.392;2022-10-29T11:18:19;526.25;;;495.20;;
64403;SDS011;50726;54.912;-8.392;2022-10-29T11:26:38;620.45;;;584.15;;
64403;SDS011;50726;54.912;-8.392;2022-10-29T11:37:05;656.33;;;616.03;;
64403;SDS011;50726;54.912;-8.392;2022-10-29T11:40:12;652.17;;;612.22;;
64403;SDS011;50726;54.912;-8.392;2022-10-29T11:42:43;687.50;;;645.17;;
64403;SDS011;50726;54.912;-8.392;2022-10-29T11:51:15;632.20;;;594.53;;
64403;SDS011;50726;54.912;-8.392;2022-10-29T11:53:57;659.25;;;619.53;;
64403;SDS011;50726;54.912;-8.392;2022-10-29T11:57:28;683.30;;;641.08;;
64403;SDS011;50726;54.912;-8.392;2022-10-29T11:59:52;705.42;;;661.92;;
64403;SDS011;50726;54.912;-8.392;2022-10-29T12:19:36;648.95;;;609.58;;
64403;SDS011;50726;54.912;-8.392;2022-10-29T12:30:10;639.35;;;600.30;;
64403;SDS011;50726;54.912;-8.392;2022-10-29T12:32:51;662.63;;;621.88;;
64403;SDS011;50726;54.912;-8.392;2022-10-29T12:40:44;625.78;;;587.25;;
64403;SDS011;50726;54.912;-8.392;2022-10-29T12:43:34;643.25;;;603.65;;
64403;SDS011;50726;54.912;-8.392;2022-10-29T12:46:23;652.08;;;611.63;;
64403;SDS011;50726;54.912;-8.392;2022-10-29T12:51:47;672.67;;;630.72;;
64403;SDS011;50726;54.912;-8.392;2022-10-29T12:57:10;672.72;;;630.53;;
64403;SDS011;50726;54.912;-8.392;2022-10-29T12:59:53;694.67;;;651.08;;
64403;SDS011;50726;54.912;-8.392;2022-10-29T13:12:55;683.40;;;639.95;;
64403;SDS011;50726;54.912;-8.392;2022-10-29T13:20:55;686.47;;;642.65;;
64403;SDS011;50726;54.912;-8.392;2022-10-29T13:25:52;680.13;;;636.38;;
64403;SDS011;50726;54.912;-8.392;2022-10-29T13:30:47;683.22;;;638.83;;
64403;SDS011;50726;54.912;-8.392;2022-10-29T13:38:39;678.42;;;634.20;;
64403;SDS011;50726;54.912;-8.392;2022-10-29T13:52:05;654.35;;;612.90;;
64403;SDS011;50726;54.912;-8.392;2022-10-29T13:54:40;665.13;;;622.47;;
64403;SDS011;50726;54.912;-8.392;2022-10-29T14:05:45;660.17;;;617.97;;
64403;SDS011;50726;54.912;-8.392;2022-10-29T14:08:33;660.85;;;618.85;;
64403;SDS011;50726;54.912;-8.392;2022-10-29T14:11:35;646.90;;;605.72;;
64403;SDS011;50726;54.912;-8.392;2022-10-29T14:14:02;642.53;;;601.55;;
64403;SDS011;50726;54.912;-8.392;2022-10-29T14:16:31;642.55;;;601.65;;
64403;SDS011;50726;54.912;-8.392;2022-10-29T14:18:57;644.80;;;604.17;;
64403;SDS011;50726;54.912;-8.392;2022-10-29T14:21:37;646.70;;;605.58;;
64403;SDS011;50726;54.912;-8.392;2022-10-29T14:24:08;618.67;;;578.65;;
64403;SDS011;50726;54.912;-8.392;2022-10-29T14:26:35;623.30;;;583.20;;
64403;SDS011;50726;54.912;-8.392;2022-10-29T14:29:24;628.47;;;587.97;;
64403;SDS011;50726;54.912;-8.392;2022-10-29T14:32:03;640.58;;;599.50;;
64403;SDS011;50726;54.912;-8.392;2022-10-29T14:34:31;663.22;;;621.55;;
64403;SDS011;50726;54.912;-8.392;2022-10-29T14:37:00;670.40;;;627.85;;
64403;SDS011;50726;54.912;-8.392;2022-10-29T14:39:34;682.92;;;639.60;;
64403;SDS011;50726;54.912;-8.392;2022-10-29T14:42:12;685.10;;;640.78;;
64403;SDS011;50726;54.912;-8.392;2022-10-29T14:44:44;680.55;;;636.33;;
64403;SDS011;50726;54.912;-8.392;2022-10-29T14:47:19;671.60;;;628.47;;
64403;SDS011;50726;54.912;-8.392;2022-10-29T14:49:50;683.85;;;639.53;;
64403;SDS011;50726;54.912;-8.392;2022-10-29T14:55:05;658.10;;;615.63;;
64403;SDS011;50726;54.912;-8.392;2022-10-29T14:57:34;678.22;;;635.30;;
64403;SDS011;50726;54.912;-8.392;2022-10-29T15:00:07;656.75;;;614.83;;
64403;SDS011;50726;54.912;-8.392;2022-10-29T15:02:46;654.78;;;613.08;;
64403;SDS011;50726;54.912;-8.392;2022-10-29T15:07:47;621.20;;;581.72;;
64403;SDS011;50726;54.912;-8.392;2022-10-29T15:10:16;609.72;;;570.30;;
64403;SDS011;50726;54.912;-8.392;2022-10-29T15:12:47;609.92;;;570.55;;
64403;SDS011;50726;54.912;-8.392;2022-10-29T15:20:30;625.83;;;585.67;;
64403;SDS011;50726;54.912;-8.392;2022-10-29T15:22:56;636.28;;;595.85;;
64403;SDS011;50726;54.912;-8.392;2022-10-29T15:25:35;633.45;;;592.40;;
64403;SDS011;50726;54.912;-8.392;2022-10-29T15:28:07;638.55;;;597.95;;
64403;SDS011;50726;54.912;-8.392;2022-10-29T15:30:40;622.70;;;583.97;;
64403;SDS011;50726;54.912;-8.392;2022-10-29T15:33:12;619.33;;;580.28;;
64403;SDS011;50726;54.912;-8.392;2022-10-29T15:36:14;609.17;;;570.17;;
64403;SDS011;50726;54.912;-8.392;2022-10-29T15:43:53;596.17;;;558.97;;
64403;SDS011;50726;54.912;-8.392;2022-10-29T15:46:20;581.38;;;544.90;;
64403;SDS011;50726;54.912;-8.392;2022-10-29T15:48:48;585.17;;;548.63;;
64403;SDS011;50726;54.912;-8.392;2022-10-29T15:51:14;596.30;;;558.72;;
64403;SDS011;50726;54.912;-8.392;2022-10-29T15:53:40;601.78;;;563.75;;
64403;SDS011;50726;54.912;-8.392;2022-10-29T15:56:09;593.58;;;556.47;;
64403;SDS011;50726;54.912;-8.392;2022-10-29T15:58:36;612.53;;;574.22;;
64403;SDS011;50726;54.912;-8.392;2022-10-29T16:01:02;601.58;;;563.42;;
64403;SDS011;50726;54.912;-8.392;2022-10-29T16:03:28;593.65;;;556.63;;
64403;SDS011;50726;54.912;-8.392;2022-10-29T16:05:55;598.45;;;561.28;;
64403;SDS011;50726;54.912;-8.392;2022-10-29T16:10:53;601.35;;;564.35;;
64403;SDS011;50726;54.912;-8.392;2022-10-29T16:13:20;612.67;;;575.25;;
64403;SDS011;50726;54.912;-8.392;2022-10-29T16:15:53;590.70;;;555.40;;
64403;SDS011;50726;54.912;-8.392;2022-10-29T16:18:19;587.58;;;552.80;;
64403;SDS011;50726;54.912;-8.392;2022-10-29T16:20:45;597.17;;;561.60;;
64403;SDS011;50726;54.912;-8.392;2022-10-29T16:23:12;589.10;;;554.35;;
64403;SDS011;50726;54.912;-8.392;2022-10-29T16:25:38;616.65;;;579.47;;
64403;SDS011;50726;54.912;-8.392;2022-10-29T16:28:05;632.55;;;594.58;;
64403;SDS011;50726;54.912;-8.392;2022-10-29T16:30:31;627.20;;;589.00;;
64403;SDS011;50726;54.912;-8.392;2022-10-29T16:32:59;662.10;;;621.20;;
64403;SDS011;50726;54.912;-8.392;2022-10-29T16:35:26;644.65;;;605.22;;
64403;SDS011;50726;54.912;-8.392;2022-10-29T16:37:54;641.83;;;602.88;;
64403;SDS011;50726;54.912;-8.392;2022-10-29T16:40:21;635.80;;;597.25;;
64403;SDS011;50726;54.912;-8.392;2022-10-29T16:42:48;630.08;;;591.60;;
64403;SDS011;50726;54.912;-8.392;2022-10-29T16:45:19;638.38;;;599.13;;
64403;SDS011;50726;54.912;-8.392;2022-10-29T16:47:46;644.47;;;605.38;;
64403;SDS011;50726;54.912;-8.392;2022-10-29T16:50:16;658.63;;;618.50;;
64403;SDS011;50726;54.912;-8.392;2022-10-29T16:52:44;664.58;;;623.45;;
64403;SDS011;50726;54.912;-8.392;2022-10-29T16:55:10;679.42;;;636.83;;
64403;SDS011;50726;54.912;-8.392;2022-10-29T16:57:36;673.50;;;631.50;;
64403;SDS011;50726;54.912;-8.392;2022-10-29T17:00:03;656.30;;;615.85;;